Tiempo atmosférico en la estación meteorológica de Cedrillas, Teruel (1380 m.)



Fecha
DESCASC
Temp. máxima en grados centígrados (hora)
DESCASC
Temp. mínima en grados centígrados (hora)
DESCASC
Temp. media en grados centígrados
DESCASC
Racha de viento máxima en m/sg (hora)
DESCASC
Velocidad máxima media en intervalos de 10 minutos(hora)
DESCASC
Precipitaciones diarias en mm
DESCASC
Precipitaciones de 00:00 a 06:00 en mm
DESCASC
Precipitaciones de 06:00 a 12:00 en mm
DESCASC
Precipitaciones de 12:00 a 18:00 en mm
DESCASC
Precipitaciones de 18:00 a 24:00 en mm
DESCASC
27-10-2020 12.5 (15:50) 0.7 (05:10) 6.6 11.39 (13:10) 7.22 (13:10) 0 0 0 0 0
26-10-2020 8.3 (00:10) 1.6 (07:10) 5 17.22 (13:30) 10.56 (13:40) 1.2 1.2 0 0 0
25-10-2020 14.1 (14:10) 3.2 (03:00) 8.7 17.22 (23:00) 12.22 (22:50) 0 0 0 0 0
24-10-2020 15.5 (16:30) 2.8 (00:00) 9.1 9.72 (16:40) 4.72 (15:10) 0 0 0 0 0
23-10-2020 12.5 (15:30) 4.8 (00:00) 8.7 10.28 (16:10) 6.67 (13:30) 0.2 0 0 0.2 0
22-10-2020 15.1 (13:00) 9 (00:00) 12.1 12.5 (01:50) 8.06 (01:50) 12.2 0.6 0 7.4 4.2
21-10-2020 16.5 (15:00) 9.8 (00:00) 13.2 16.11 (01:00) 10.56 (00:30) 0 0 0 0 0
20-10-2020 14 (17:20) 7.8 (00:00) 10.9 17.22 (19:50) 11.67 (19:50) 0 0 0 0 0
19-10-2020 17.6 (15:30) 1.7 (00:00) 9.7 10.83 (11:40) 8.06 (18:40) 0 0 0 0 0
18-10-2020 18.2 (15:00) -1.1 (-00:0) 8.6 6.94 (19:10) 5.28 (19:00) 0 0 0 0 0
17-10-2020 14 (16:10) -3.5 (-00:0) 5.3 8.33 (17:30) 4.72 (14:50) 0 0 0 0 0
16-10-2020 10.6 (16:40) -1.3 (-00:0) 4.7 8.89 (10:40) 5.83 (10:40) 0 0 0 0 0
15-10-2020 8.3 (17:00) 0.1 (00:00) 4.2 14.44 (10:30) 9.17 (10:30) 0 0 0 0 0
14-10-2020 10.4 (15:30) 3 (00:00) 6.7 15 (16:20) 9.72 (16:30) 0 0 0 0 0
13-10-2020 15.2 (16:50) 6.7 (00:00) 10.9 12.78 (03:40) 8.33 (12:00) 0 0 0 0 0
12-10-2020 10.6 (16:30) 2.8 (00:00) 6.7 16.94 (03:10) 11.67 (03:10) 0 0 0 0 0
11-10-2020 10.7 (14:40) 2.7 (00:00) 6.7 16.11 (23:10) 10.56 (23:10) 0 0 0 0 0
10-10-2020 15.8 (17:00) 7.5 (00:00) 11.7 8.61 (18:30) 5.56 (18:10) 0 0 0 0 0
09-10-2020 22.7 (15:20) 6.5 (00:00) 14.6 7.5 (20:50) 5.28 (20:00) 0 0 0 0 0
08-10-2020 22.5 (15:50) 5.3 (00:00) 13.9 8.89 (16:00) 5.56 (17:00) 0 0 0 0 0
07-10-2020 19.7 (17:10) 8.7 (00:00) 14.2 11.67 (12:20) 7.78 (13:30) 0 0 0 0 0
06-10-2020 17.9 (17:20) 3.3 (00:00) 10.6 10.28 (15:10) 7.22 (15:10) 0 0 0 0 0
05-10-2020 12.6 (18:00) 3.4 (00:00) 8 12.78 (09:20) 8.33 (09:20) 0 0 0 0 0
04-10-2020 11.4 (15:40) 3.1 (00:00) 7.2 16.11 (16:20) 11.11 (16:10) 0.2 0 0 0.2 0
03-10-2020 11.5 (17:40) 2.3 (00:00) 6.9 14.17 (08:00) 9.44 (10:10) 0 0 0 0 0
02-10-2020 12.3 (00:00) 2.4 (00:00) 7.4 21.11 (15:00) 13.33 (15:00) 16 0 0 15.6 0.4
01-10-2020 21.3 (16:10) 5.8 (08:30) 13.5 9.17 (14:50) 5.83 (16:50) 0 0 0 0 0
30-09-2020 23.4 (16:40) 4.2 (00:00) 13.8 7.22 (18:00) 5 (18:50) 0 0 0 0 0

Gráficas

Temp. máximas Temp. mínimas Temp. medias Precipitaciones Rachas de viento máximas Velocidades máximas media en intervalos de 10 minutos

Datos horarios

Fecha y hora oficial Temperatura (ºC) Velocidad del viento (km/h) Dirección del viento Racha (km/h) Dirección de racha Precipitación (mm) Presión (hPa) Tendencia (hPa) Humedad (%)
2020-10-29 23:00:00 5.2 9 Este 13 Este 0 -- -- 81
2020-10-29 22:00:00 6.1 2 Noroeste 13 Este 0 -- -- 81
2020-10-29 21:00:00 7.1 8 Este 13 Este 0 -- -- 80
2020-10-29 20:00:00 9.5 2 Este 10 Sur 0 -- -- 69
2020-10-29 19:00:00 12.2 2 Sudoeste 12 Sudoeste 0 -- -- 53
2020-10-29 18:00:00 15.1 9 Sudoeste 18 Sudoeste 0 -- -- 43
2020-10-29 17:00:00 18 13 Sudoeste 19 Sudoeste 0 -- -- 33
2020-10-29 16:00:00 19 13 Sur 23 Sudoeste 0 -- -- 40
2020-10-29 15:00:00 18.8 10 Sur 22 Sudeste 0 -- -- 43
2020-10-29 14:00:00 18 14 Sur 23 Sur 0 -- -- 45
2020-10-29 13:00:00 16.7 14 Sur 24 Sudoeste 0 -- -- 48
2020-10-29 12:00:00 15.1 15 Sur 26 Sudeste 0 -- -- 60
2020-10-29 11:00:00 12.9 16 Sur 24 Sur 0 -- -- 72
2020-10-29 10:00:00 6.6 3 Nordeste 6 Este 0 -- -- 99
2020-10-29 09:00:00 3.8 2 Oeste 12 Nordeste 0 -- -- 100
2020-10-29 08:00:00 2.2 4 Sudoeste 12 Sudeste 0 -- -- 99
2020-10-29 07:00:00 3.4 0 Calma 11 Sudeste 0 -- -- 98
2020-10-29 06:00:00 4.7 6 Sudeste 8 Sudeste 0 -- -- 99
2020-10-29 05:00:00 5.1 2 Sudoeste 8 Este 0 -- -- 98
2020-10-29 04:00:00 5 3 Nordeste 6 Este 0 -- -- 100
2020-10-29 03:00:00 4.3 5 Sudeste 14 Este 0 -- -- 99
2020-10-29 02:00:00 3.6 5 Nordeste 8 Nordeste 0 -- -- 98
2020-10-29 01:00:00 4 3 Este 10 Este 0 -- -- 94
2020-10-29 00:00:00 4.8 8 Este 15 Este 0 -- -- 92
2020-10-28 23:00:00 5.9 3 Sudeste 15 Este 0 -- -- 91
2020-10-28 22:00:00 8.1 4 Este 14 Noroeste 0 -- -- 90
2020-10-28 21:00:00 8.8 3 Nordeste 20 Noroeste 0 -- -- 84
2020-10-28 20:00:00 10 9 Noroeste 15 Noroeste 0 -- -- 77
2020-10-28 19:00:00 10.6 7 Nordeste 20 Norte 0 -- -- 73
2020-10-28 18:00:00 13.6 9 Noroeste 19 Noroeste 0 -- -- 62
2020-10-28 17:00:00 15.1 14 Oeste 23 Noroeste 0 -- -- 57
2020-10-28 16:00:00 16.2 15 Oeste 27 Oeste 0 -- -- 54
2020-10-28 15:00:00 16.5 17 Oeste 30 Noroeste 0 -- -- 51
2020-10-28 14:00:00 15.8 17 Noroeste 26 Noroeste 0 -- -- 58
2020-10-28 13:00:00 15.9 20 Oeste 32 Oeste 0 -- -- 56
2020-10-28 12:00:00 14.4 12 Noroeste 20 Oeste 0 -- -- 64
2020-10-28 11:00:00 13.8 13 Noroeste 21 Oeste 0 -- -- 69
2020-10-28 10:00:00 11.4 7 Nordeste 14 Nordeste 0 -- -- 77
2020-10-28 09:00:00 9.1 7 Nordeste 14 Este 0 -- -- 85
2020-10-28 08:00:00 6.8 7 Nordeste 12 Nordeste 0 -- -- 93
2020-10-28 07:00:00 6.1 5 Norte 17 Nordeste 0 -- -- 92
2020-10-28 06:00:00 6.6 6 Nordeste 22 Norte 0 -- -- 90
2020-10-28 05:00:00 6 8 Nordeste 22 Norte 0 -- -- 91
2020-10-28 04:00:00 7 14 Noroeste 26 Noroeste 0 -- -- 88
2020-10-28 03:00:00 7.2 15 Norte 23 Norte 0 -- -- 85
2020-10-28 02:00:00 6.9 10 Norte 22 Noroeste 0 -- -- 84
2020-10-28 01:00:00 7 9 Norte 31 Noroeste 0 -- -- 79
2020-10-28 00:00:00 6.8 10 Nordeste 15 Norte 0 -- -- 79
2020-10-27 23:00:00 6.9 9 Norte 23 Norte 0 -- -- 76
2020-10-27 22:00:00 7 10 Norte 18 Norte 0 -- -- 75
2020-10-27 21:00:00 7.1 7 Norte 23 Norte 0 -- -- 72
2020-10-27 20:00:00 7.4 10 Norte 22 Norte 0 -- -- 69
2020-10-27 19:00:00 8 7 Norte 13 Norte 0 -- -- 64
2020-10-27 18:00:00 10 7 Norte 27 Noroeste 0 -- -- 55
2020-10-27 17:00:00 12.3 11 Noroeste 28 Noroeste 0 -- -- 46
2020-10-27 16:00:00 12.3 15 Noroeste 24 Noroeste 0 -- -- 48
2020-10-27 15:00:00 11.7 10 Noroeste 25 Oeste 0 -- -- 45
2020-10-27 14:00:00 10.2 13 Noroeste 41 Oeste 0 -- -- 50
2020-10-27 13:00:00 9.1 23 Oeste 36 Oeste 0 -- -- 53
2020-10-27 12:00:00 6.8 13 Noroeste 21 Oeste 0 -- -- 65
2020-10-27 11:00:00 5.2 10 Noroeste 26 Noroeste 0 -- -- 74
2020-10-27 10:00:00 3.9 15 Noroeste 24 Noroeste 0 -- -- 80
2020-10-27 09:00:00 2.1 12 Noroeste 18 Norte 0 -- -- 88
2020-10-27 08:00:00 1.4 10 Norte 18 Norte 0 -- -- 90
2020-10-27 07:00:00 1.6 11 Norte 27 Noroeste 0 -- -- 88
2020-10-27 06:00:00 1.9 15 Noroeste 25 Noroeste 0 -- -- 86
2020-10-27 05:00:00 0.9 9 Norte 20 Norte 0 -- -- 87
2020-10-27 04:00:00 1.3 10 Norte 17 Norte 0 -- -- 82
2020-10-27 03:00:00 1.4 8 Norte 18 Oeste 0 -- -- 80
2020-10-27 02:00:00 1.4 3 Noroeste 14 Noroeste 0 -- -- 78
2020-10-27 01:00:00 2.1 7 Oeste 29 Oeste 0 -- -- 74
2020-10-27 00:00:00 2.8 21 Oeste 33 Oeste 0 -- -- 71
2020-10-26 23:00:00 2.9 19 Noroeste 29 Oeste 0 -- -- 71
2020-10-26 22:00:00 2.5 5 Nordeste 27 Noroeste 0 -- -- 77
2020-10-26 21:00:00 3.1 19 Noroeste 30 Noroeste 0 -- -- 75
2020-10-26 20:00:00 3.4 14 Noroeste 26 Noroeste 0 -- -- 73
2020-10-26 19:00:00 4.3 14 Noroeste 31 Oeste 0 -- -- 69
2020-10-26 18:00:00 5.5 18 Noroeste 31 Noroeste 0 -- -- 65
2020-10-26 17:00:00 6.9 17 Noroeste 43 Noroeste 0 -- -- 60
2020-10-26 16:00:00 7.1 27 Noroeste 49 Oeste 0 -- -- 57
2020-10-26 15:00:00 6 25 Noroeste 48 Oeste 0 -- -- 63
2020-10-26 14:00:00 5.6 28 Noroeste 62 Oeste 0 -- -- 66
2020-10-26 13:00:00 5.4 35 Noroeste 55 Oeste 0 -- -- 69
2020-10-26 12:00:00 4.1 32 Noroeste 61 Oeste 0 -- -- 72
2020-10-26 11:00:00 2.8 25 Noroeste 46 Noroeste 0 -- -- 83
2020-10-26 10:00:00 2.2 19 Noroeste 41 Noroeste 0 -- -- 88
2020-10-26 09:00:00 2 22 Noroeste 53 Noroeste 0 -- -- 88
2020-10-26 08:00:00 1.7 27 Noroeste 43 Oeste 0 -- -- 89
2020-10-26 07:00:00 1.7 24 Noroeste 50 Oeste 0 -- -- 90
2020-10-26 06:00:00 2.4 30 Noroeste 49 Oeste 0 -- -- 88
2020-10-26 05:00:00 2.9 19 Noroeste 36 Oeste 0 -- -- 87
2020-10-26 04:00:00 4 22 Noroeste 35 Oeste 0 -- -- 88
2020-10-26 03:00:00 4.8 20 Oeste 40 Oeste 0.4 -- -- 90
2020-10-26 02:00:00 5.6 16 Noroeste 31 Noroeste 0.4 -- -- 93
2020-10-26 01:00:00 6.6 20 Oeste 48 Sudoeste 0.4 -- -- 92
2020-10-26 00:00:00 8.1 29 Oeste 56 Sudoeste 0 -- -- 82
2020-10-25 23:00:00 8.1 44 Sudoeste 62 Sudoeste 0 -- -- 89
2020-10-25 22:00:00 8.8 26 Sudoeste 44 Sudoeste 0 -- -- 86
2020-10-25 21:00:00 9.3 22 Sudoeste 47 Sudoeste 0 -- -- 82
2020-10-25 20:00:00 9.2 26 Sudoeste 45 Sudoeste 0 -- -- 80
2020-10-25 19:00:00 9.5 18 Sur 35 Sudoeste 0 -- -- 76
2020-10-25 18:00:00 10.3 17 Sudoeste 39 Sudoeste 0 -- -- 67
2020-10-25 17:00:00 11.4 19 Sudoeste 42 Sur 0 -- -- 61
2020-10-25 16:00:00 12.9 26 Sudoeste 41 Sudoeste 0 -- -- 56
2020-10-25 15:00:00 13.7 22 Sudoeste 36 Sudoeste 0 -- -- 53
2020-10-25 14:00:00 14 16 Sudoeste 30 Sudoeste 0 -- -- 56
2020-10-25 13:00:00 12.7 17 Sudoeste 43 Sudoeste 0 -- -- 58
2020-10-25 12:00:00 11.5 18 Sudoeste 42 Sudoeste 0 -- -- 62
2020-10-25 11:00:00 10.7 25 Sudoeste 35 Sudoeste 0 -- -- 60
2020-10-25 10:00:00 9.5 16 Sur 35 Sur 0 -- -- 63
2020-10-25 09:00:00 9.1 15 Sudoeste 33 Sudoeste 0 -- -- 65
2020-10-25 08:00:00 6 9 Sudeste 21 Sudeste 0 -- -- 78
2020-10-25 07:00:00 5.2 8 Sudoeste 17 Sudoeste 0 -- -- 78
2020-10-25 06:00:00 4.8 12 Sudeste 22 Sur 0 -- -- 80
2020-10-25 05:00:00 5.2 12 Sudeste 19 Sur 0 -- -- 81
2020-10-25 04:00:00 3.9 8 Este 21 Sudeste 0 -- -- 89
2020-10-25 03:00:00 3.2 6 Sudeste 13 Este 0 -- -- 93
2020-10-25 02:00:00 4.3 10 Sudeste 17 Este 0 -- -- 88
2020-10-25 01:00:00 6.5 10 Sur 21 Este 0 -- -- 82
2020-10-25 00:00:00 7 14 Sudeste 22 Sudeste 0 -- -- 77
2020-10-24 23:00:00 7.6 13 Sudoeste 21 Sudoeste 0 -- -- 71
2020-10-24 22:00:00 7.8 2 Nordeste 12 Sudoeste 0 -- -- 67
2020-10-24 21:00:00 9.3 3 Sudoeste 12 Oeste 0 -- -- 58
2020-10-24 20:00:00 10 8 Oeste 13 Oeste 0 -- -- 54
2020-10-24 19:00:00 12.5 9 Oeste 19 Sudoeste 0 -- -- 51
2020-10-24 18:00:00 14.8 14 Sudoeste 22 Sudoeste 0 -- -- 43
2020-10-24 17:00:00 15.1 12 Oeste 35 Oeste 0 -- -- 44
2020-10-24 16:00:00 15.2 15 Oeste 24 Oeste 0 -- -- 43
2020-10-24 15:00:00 14.6 13 Oeste 23 Oeste 0 -- -- 43
2020-10-24 14:00:00 13.1 5 Nordeste 15 Noroeste 0 -- -- 47
2020-10-24 13:00:00 11.5 11 Noroeste 19 Noroeste 0 -- -- 55
2020-10-24 12:00:00 9.8 6 Noroeste 18 Norte 0 -- -- 64
2020-10-24 11:00:00 8.1 7 Norte 16 Nordeste 0 -- -- 77
2020-10-24 10:00:00 6.4 11 Nordeste 18 Nordeste 0 -- -- 85
2020-10-24 09:00:00 3.6 7 Norte 14 Nordeste 0 -- -- 92
2020-10-24 08:00:00 3 8 Norte 13 Nordeste 0 -- -- 96
2020-10-24 07:00:00 3.5 6 Nordeste 18 Oeste 0 -- -- 94
2020-10-24 06:00:00 3.1 4 Nordeste 9 Este 0 -- -- 94
2020-10-24 05:00:00 3.8 4 Norte 11 Nordeste 0 -- -- 93
2020-10-24 04:00:00 4.2 7 Norte 19 Noroeste 0 -- -- 92
2020-10-24 03:00:00 4.4 9 Noroeste 15 Noroeste 0 -- -- 93
2020-10-24 02:00:00 4 6 Nordeste 11 Norte 0 -- -- 91
2020-10-24 01:00:00 4.9 7 Norte 18 Noroeste 0 -- -- 87
2020-10-24 00:00:00 4.8 7 Norte 19 Noroeste 0 -- -- 85
2020-10-23 23:00:00 5.2 7 Norte 18 Oeste 0 -- -- 84
2020-10-23 22:00:00 5.8 14 Oeste 21 Oeste 0 -- -- 84
2020-10-23 21:00:00 7.1 10 Noroeste 18 Oeste 0 -- -- 82
2020-10-23 20:00:00 7.5 9 Oeste 23 Sudoeste 0 -- -- 75
2020-10-23 19:00:00 8.8 15 Oeste 24 Oeste 0 -- -- 71
2020-10-23 18:00:00 8.9 9 Oeste 32 Oeste 0.2 -- -- 78
2020-10-23 17:00:00 11.6 19 Oeste 37 Oeste 0 -- -- 55
2020-10-23 16:00:00 11.9 19 Oeste 33 Sudoeste 0 -- -- 54
2020-10-23 15:00:00 11.9 17 Oeste 32 Oeste 0 -- -- 55
2020-10-23 14:00:00 10.8 18 Oeste 33 Oeste 0 -- -- 61
2020-10-23 13:00:00 10.8 17 Oeste 30 Oeste 0 -- -- 66
2020-10-23 12:00:00 8.7 19 Oeste 32 Oeste 0 -- -- 74
2020-10-23 11:00:00 9.2 13 Oeste 22 Sudoeste 0 -- -- 73
2020-10-23 10:00:00 8.7 10 Sudoeste 16 Sur 0 -- -- 85
2020-10-23 09:00:00 6.7 8 Sur 13 Sudoeste 0 -- -- 95
2020-10-23 08:00:00 6.7 10 Sudoeste 26 Sudoeste 0 -- -- 94
2020-10-23 07:00:00 7.1 10 Sur 19 Sur 0 -- -- 94
2020-10-23 06:00:00 7.8 9 Sur 25 Sur 0 -- -- 94
2020-10-23 05:00:00 8.5 12 Sur 22 Sur 0 -- -- 94
2020-10-23 04:00:00 8.1 8 Sur 21 Sur 0 -- -- 94
2020-10-23 03:00:00 8.6 13 Sur 21 Sur 0 -- -- 95
2020-10-23 02:00:00 8.8 11 Sudoeste 22 Sur 0 -- -- 96
2020-10-23 01:00:00 9.2 8 Sur 15 Sur 0 -- -- 98
2020-10-23 00:00:00 9.1 9 Sur 14 Sur 0 -- -- 98
2020-10-22 23:00:00 9.4 9 Sur 17 Sur 0 -- -- 98
2020-10-22 22:00:00 9.8 13 Sur 18 Sur 0 -- -- 97
2020-10-22 21:00:00 9.9 14 Sur 19 Sudeste 0 -- -- 95
2020-10-22 20:00:00 10 9 Sur 18 Sur 0 -- -- 97
2020-10-22 19:00:00 10.1 10 Sur 28 Sudoeste 4.2 -- -- 97
2020-10-22 18:00:00 10.1 22 Sudoeste 36 Sudoeste 6.6 -- -- 95
2020-10-22 17:00:00 10.9 15 Sudeste 25 Sudeste 0.6 -- -- 90
2020-10-22 16:00:00 11.3 13 Sudeste 30 Sudeste 0.2 -- -- 88
2020-10-22 15:00:00 12.3 22 Sudeste 34 Sudeste 0 -- -- 85
2020-10-22 14:00:00 13.5 20 Sudeste 31 Sudeste 0 -- -- 71
2020-10-22 13:00:00 15.1 18 Sur 33 Sur 0 -- -- 63
2020-10-22 12:00:00 14.4 20 Sur 32 Sur 0 -- -- 64
2020-10-22 11:00:00 13.6 16 Sudeste 27 Sudeste 0 -- -- 68
2020-10-22 10:00:00 12.6 8 Sudeste 12 Sudeste 0 -- -- 74
2020-10-22 09:00:00 10.2 4 Sudeste 14 Sur 0 -- -- 82
2020-10-22 08:00:00 10.3 11 Sur 22 Sur 0 -- -- 81
2020-10-22 07:00:00 10.8 12 Sur 27 Sudeste 0 -- -- 78
2020-10-22 06:00:00 10.7 16 Sur 37 Sur 0 -- -- 79
2020-10-22 05:00:00 11 19 Sur 34 Sur 0 -- -- 78
2020-10-22 04:00:00 10.8 13 Sur 23 Sur 0.2 -- -- 82
2020-10-22 03:00:00 10.8 11 Sur 29 Sudeste 0.2 -- -- 82
2020-10-22 02:00:00 11.1 26 Sudeste 45 Sudeste 0.2 -- -- 80
2020-10-22 01:00:00 11.6 18 Sudeste 28 Sudeste 0 -- -- 72
2020-10-22 00:00:00 10.4 7 Sur 13 Sur 0 -- -- 81
2020-10-21 23:00:00 10.9 8 Sur 17 Sur 0 -- -- 76
2020-10-21 22:00:00 10.3 9 Sur 16 Sur 0 -- -- 70
2020-10-21 21:00:00 11.6 9 Sudeste 14 Sur 0 -- -- 67
2020-10-21 20:00:00 11.9 8 Sur 13 Sur 0 -- -- 65
2020-10-21 19:00:00 13 9 Sudoeste 27 Sudoeste 0 -- -- 60
2020-10-21 18:00:00 15.4 20 Sur 43 Sur 0 -- -- 51
2020-10-21 17:00:00 15.5 23 Sudoeste 42 Sur 0 -- -- 53
2020-10-21 16:00:00 16.2 24 Sudoeste 40 Sur 0 -- -- 53
2020-10-21 15:00:00 16.5 22 Sudoeste 49 Sudoeste 0 -- -- 52
2020-10-21 14:00:00 15.2 16 Sudoeste 41 Sur 0 -- -- 57
2020-10-21 13:00:00 15.2 27 Sur 51 Sudoeste 0 -- -- 56
2020-10-21 12:00:00 14.7 23 Sur 38 Sur 0 -- -- 58
2020-10-21 11:00:00 13.6 19 Sudoeste 41 Sudoeste 0 -- -- 60
2020-10-21 10:00:00 11.5 21 Sur 37 Sur 0 -- -- 71
2020-10-21 09:00:00 10.1 19 Sur 35 Sur 0 -- -- 85
2020-10-21 08:00:00 10.7 18 Sur 35 Sur 0 -- -- 84
2020-10-21 07:00:00 11.7 21 Sur 45 Sur 0 -- -- 81
2020-10-21 06:00:00 11.7 17 Sur 34 Sur 0 -- -- 79
2020-10-21 05:00:00 10.7 14 Sur 28 Sur 0 -- -- 82
2020-10-21 04:00:00 9.8 18 Sur 37 Sur 0 -- -- 94
2020-10-21 03:00:00 10.2 24 Sur 43 Sur 0 -- -- 93
2020-10-21 02:00:00 10.8 28 Sudeste 55 Sudeste 0 -- -- 85
2020-10-21 01:00:00 10.6 38 Sudeste 58 Sudeste 0 -- -- 92
2020-10-21 00:00:00 10.6 33 Sudeste 55 Sudeste 0 -- -- 92
2020-10-20 23:00:00 10.6 36 Sudeste 54 Sudeste 0 -- -- 92
2020-10-20 22:00:00 10.4 34 Sudeste 59 Sudeste 0 -- -- 93
2020-10-20 21:00:00 10.4 30 Sudeste 58 Sudeste 0 -- -- 93
2020-10-20 20:00:00 10.6 40 Sudeste 62 Sudeste 0 -- -- 91
2020-10-20 19:00:00 11.2 34 Sudeste 53 Sudeste 0 -- -- 87
2020-10-20 18:00:00 12.2 30 Sudeste 50 Sudeste 0 -- -- 80
2020-10-20 17:00:00 13.4 31 Sudeste 46 Sudeste 0 -- -- 69
2020-10-20 16:00:00 13.3 26 Sudeste 42 Sur 0 -- -- 64
2020-10-20 15:00:00 13.3 27 Sudeste 41 Sudeste 0 -- -- 67
2020-10-20 14:00:00 12.8 28 Sudeste 46 Sudeste 0 -- -- 71
2020-10-20 13:00:00 12.6 33 Sudeste 48 Sudeste 0 -- -- 69
2020-10-20 12:00:00 12.1 27 Sudeste 49 Sur 0 -- -- 61
2020-10-20 11:00:00 11.2 27 Sudeste 40 Sudeste 0 -- -- 68
2020-10-20 10:00:00 10 26 Sudeste 44 Sudeste 0 -- -- 75
2020-10-20 09:00:00 9 27 Sudeste 42 Sudeste 0 -- -- 90
2020-10-20 08:00:00 8.6 28 Sudeste 43 Sudeste 0 -- -- 95
2020-10-20 07:00:00 8.6 23 Sudeste 38 Sur 0 -- -- 95
2020-10-20 06:00:00 8.6 22 Sur 37 Sur 0 -- -- 93
2020-10-20 05:00:00 8.9 25 Sur 36 Sudeste 0 -- -- 94
2020-10-20 04:00:00 8.6 24 Sur 36 Sur 0 -- -- 98
2020-10-20 03:00:00 8.3 23 Sur 32 Sur 0 -- -- 98
2020-10-20 02:00:00 8.1 16 Sudeste 31 Sudeste 0 -- -- 99
2020-10-20 01:00:00 8 12 Sur 26 Sur 0 -- -- 99
2020-10-20 00:00:00 8 18 Sur 27 Sur 0 -- -- 99
2020-10-19 23:00:00 8.2 18 Sur 33 Sur 0 -- -- 98
2020-10-19 22:00:00 8.4 15 Sur 27 Sur 0 -- -- 93
2020-10-19 21:00:00 9.5 22 Sur 34 Sudeste 0 -- -- 82
2020-10-19 20:00:00 10.9 26 Sur 36 Sur 0 -- -- 74
2020-10-19 19:00:00 12.8 27 Sur 37 Sudeste 0 -- -- 65
2020-10-19 18:00:00 14.9 23 Sudeste 35 Sur 0 -- -- 54
2020-10-19 17:00:00 16.5 23 Sur 38 Sur 0 -- -- 47
2020-10-19 16:00:00 16.9 24 Sur 37 Sur 0 -- -- 44
2020-10-19 15:00:00 17.2 23 Sur 38 Sur 0 -- -- 41
2020-10-19 14:00:00 16.7 24 Sur 36 Sur 0 -- -- 37
2020-10-19 13:00:00 15.1 24 Sudeste 37 Sudeste 0 -- -- 38
2020-10-19 12:00:00 14 24 Sudeste 39 Sur 0 -- -- 48
2020-10-19 11:00:00 12.1 21 Sudeste 31 Sudeste 0 -- -- 63
2020-10-19 10:00:00 10.1 12 Sur 21 Sudeste 0 -- -- 63
2020-10-19 09:00:00 6.5 9 Sur 15 Sur 0 -- -- 65
2020-10-19 08:00:00 5.3 10 Sur 16 Sur 0 -- -- 66
2020-10-19 07:00:00 4.7 8 Sur 18 Sur 0 -- -- 72
2020-10-19 06:00:00 4.8 11 Sur 14 Sur 0 -- -- 82
2020-10-19 05:00:00 2.4 6 Sur 10 Sur 0 -- -- 99
2020-10-19 04:00:00 2 0 Calma 3 Oeste 0 -- -- 96
2020-10-19 03:00:00 2.4 0 Calma 6 Este 0 -- -- 94
2020-10-19 02:00:00 4 3 Sudoeste 10 Este 0 -- -- 96
2020-10-19 01:00:00 5.8 4 Sudeste 10 Sur 0 -- -- 96
2020-10-19 00:00:00 7.4 6 Sur 12 Sur 0 -- -- 98
2020-10-18 23:00:00 6.9 4 Sudoeste 14 Sur 0 -- -- 94
2020-10-18 22:00:00 8.6 12 Sur 17 Sur 0 -- -- 89
2020-10-18 21:00:00 9.9 9 Sur 22 Sur 0 -- -- 78
2020-10-18 20:00:00 11.6 12 Sudeste 25 Sudeste 0 -- -- 65
2020-10-18 19:00:00 13.6 19 Sur 24 Sudeste 0 -- -- 51
2020-10-18 18:00:00 16.6 6 Oeste 14 Sudoeste 0 -- -- 23
2020-10-18 17:00:00 17.2 6 Sudoeste 19 Oeste 0 -- -- 21
2020-10-18 16:00:00 17.8 10 Oeste 22 Sudoeste 0 -- -- 24
2020-10-18 15:00:00 18.2 9 Sudoeste 18 Sur 0 -- -- 23
2020-10-18 14:00:00 17.3 9 Sur 18 Sudoeste 0 -- -- 25
2020-10-18 13:00:00 15.6 8 Sur 20 Sur 0 -- -- 25
2020-10-18 12:00:00 13.8 7 Sur 13 Sudoeste 0 -- -- 38
2020-10-18 11:00:00 9.3 0 Calma 5 Oeste 0 -- -- 56
2020-10-18 10:00:00 3.8 0 Calma 3 Nordeste 0 -- -- 75
2020-10-18 09:00:00 0.1 2 Oeste 10 Este 0 -- -- 85
2020-10-18 08:00:00 1 6 Este 8 Este 0 -- -- 81
2020-10-18 07:00:00 0.1 0 Calma 7 Nordeste 0 -- -- 84
2020-10-18 06:00:00 -0.1 5 Este 6 Nordeste 0 -- -- 86
2020-10-18 05:00:00 -0.4 0 Calma 10 Este 0 -- -- 80
2020-10-18 04:00:00 0.1 0 Calma 9 Este 0 -- -- 79
2020-10-18 03:00:00 0.3 5 Este 7 Este 0 -- -- 81
2020-10-18 02:00:00 1.1 5 Este 10 Este 0 -- -- 76
2020-10-18 01:00:00 1.6 4 Este 9 Este 0 -- -- 73
2020-10-18 00:00:00 2.1 5 Este 9 Este 0 -- -- 69
2020-10-17 23:00:00 4.5 3 Este 9 Este 0 -- -- 61
2020-10-17 22:00:00 5.6 4 Este 10 Este 0 -- -- 57
2020-10-17 21:00:00 6.4 7 Este 10 Este 0 -- -- 52
2020-10-17 20:00:00 8.8 3 Nordeste 13 Noroeste 0 -- -- 45
2020-10-17 19:00:00 12.4 9 Noroeste 22 Oeste 0 -- -- 36
2020-10-17 18:00:00 13.7 13 Noroeste 30 Oeste 0 -- -- 30
2020-10-17 17:00:00 13.8 14 Noroeste 28 Norte 0 -- -- 27
2020-10-17 16:00:00 13.7 14 Noroeste 27 Oeste 0 -- -- 27
2020-10-17 15:00:00 12.8 16 Noroeste 27 Oeste 0 -- -- 31
2020-10-17 14:00:00 11.6 17 Oeste 27 Oeste 0 -- -- 33
2020-10-17 13:00:00 10.1 13 Noroeste 24 Noroeste 0 -- -- 41
2020-10-17 12:00:00 9.4 11 Noroeste 19 Oeste 0 -- -- 41
2020-10-17 11:00:00 6.8 3 Norte 9 Oeste 0 -- -- 64
2020-10-17 10:00:00 2.1 2 Norte 8 Este 0 -- -- 83
2020-10-17 09:00:00 -1.3 3 Este 5 Este 0 -- -- 90
2020-10-17 08:00:00 -3.3 3 Nordeste 6 Este 0 -- -- 94
2020-10-17 07:00:00 -2.9 3 Este 8 Nordeste 0 -- -- 93
2020-10-17 06:00:00 -2.5 8 Este 10 Este 0 -- -- 92
2020-10-17 05:00:00 -2.6 4 Nordeste 6 Este 0 -- -- 92
2020-10-17 04:00:00 -2.4 3 Nordeste 6 Sudeste 0 -- -- 90
2020-10-17 03:00:00 -2 5 Este 8 Este 0 -- -- 91
2020-10-17 02:00:00 -1.5 4 Este 10 Este 0 -- -- 87
2020-10-17 01:00:00 -1 4 Nordeste 8 Este 0 -- -- 83
2020-10-17 00:00:00 0 2 Este 9 Este 0 -- -- 79
2020-10-16 23:00:00 0.6 3 Sudoeste 13 Sudeste 0 -- -- 75
2020-10-16 22:00:00 2.3 6 Este 9 Este 0 -- -- 69
2020-10-16 21:00:00 4.1 4 Norte 9 Este 0 -- -- 61
2020-10-16 20:00:00 6.4 5 Norte 14 Noroeste 0 -- -- 54
2020-10-16 19:00:00 9.5 8 Noroeste 16 Oeste 0 -- -- 46
2020-10-16 18:00:00 10.2 11 Noroeste 18 Noroeste 0 -- -- 43
2020-10-16 17:00:00 10.5 9 Noroeste 18 Noroeste 0 -- -- 41
2020-10-16 16:00:00 10 9 Noroeste 24 Noroeste 0 -- -- 42
2020-10-16 15:00:00 9.3 13 Noroeste 21 Noroeste 0 -- -- 44
2020-10-16 14:00:00 8.2 12 Noroeste 24 Norte 0 -- -- 51
2020-10-16 13:00:00 7.1 12 Noroeste 24 Noroeste 0 -- -- 53
2020-10-16 12:00:00 5.5 17 Norte 30 Norte 0 -- -- 60
2020-10-16 11:00:00 3.8 18 Norte 32 Nordeste 0 -- -- 72
2020-10-16 10:00:00 2.1 15 Norte 24 Norte 0 -- -- 80
2020-10-16 09:00:00 0 9 Nordeste 21 Norte 0 -- -- 91
2020-10-16 08:00:00 0 13 Norte 27 Nordeste 0 -- -- 91
2020-10-16 07:00:00 -0.4 12 Nordeste 19 Nordeste 0 -- -- 92
2020-10-16 06:00:00 0.1 12 Norte 28 Norte 0 -- -- 90
2020-10-16 05:00:00 -1 14 Norte 23 Norte 0 -- -- 92
2020-10-16 04:00:00 -1.2 8 Nordeste 20 Nordeste 0 -- -- 89
2020-10-16 03:00:00 -0.4 12 Norte 26 Norte 0 -- -- 87
2020-10-16 02:00:00 0 11 Norte 26 Noroeste 0 -- -- 86
2020-10-16 01:00:00 0.3 14 Nordeste 23 Noroeste 0 -- -- 84
2020-10-16 00:00:00 1 9 Norte 31 Noroeste 0 -- -- 83
2020-10-15 23:00:00 1.7 9 Nordeste 33 Noroeste 0 -- -- 78
2020-10-15 22:00:00 3.3 26 Noroeste 42 Noroeste 0 -- -- 74
2020-10-15 21:00:00 4 20 Noroeste 36 Noroeste 0 -- -- 73
2020-10-15 20:00:00 5.1 14 Noroeste 36 Norte 0 -- -- 70
2020-10-15 19:00:00 6.4 20 Noroeste 33 Oeste 0 -- -- 64
2020-10-15 18:00:00 6.2 21 Noroeste 39 Noroeste 0 -- -- 67
2020-10-15 17:00:00 8.3 25 Noroeste 42 Oeste 0 -- -- 54
2020-10-15 16:00:00 7.5 27 Noroeste 42 Noroeste 0 -- -- 55
2020-10-15 15:00:00 7 27 Noroeste 45 Oeste 0 -- -- 58
2020-10-15 14:00:00 7 26 Noroeste 49 Noroeste 0 -- -- 60
2020-10-15 13:00:00 6.8 27 Noroeste 49 Noroeste 0 -- -- 60
2020-10-15 12:00:00 5.5 29 Noroeste 47 Norte 0 -- -- 62
2020-10-15 11:00:00 3.8 28 Noroeste 52 Noroeste 0 -- -- 75
2020-10-15 10:00:00 2.5 29 Noroeste 48 Noroeste 0 -- -- 83
2020-10-15 09:00:00 1.6 26 Noroeste 44 Noroeste 0 -- -- 84
2020-10-15 08:00:00 0.4 25 Noroeste 42 Norte 0 -- -- 89
2020-10-15 07:00:00 0.8 24 Noroeste 42 Noroeste 0 -- -- 88
2020-10-15 06:00:00 0.8 23 Noroeste 34 Noroeste 0 -- -- 85
2020-10-15 05:00:00 0.8 20 Noroeste 35 Noroeste 0 -- -- 88
2020-10-15 04:00:00 1.3 17 Noroeste 29 Norte 0 -- -- 89
2020-10-15 03:00:00 1.4 15 Noroeste 32 Noroeste 0 -- -- 89
2020-10-15 02:00:00 1.8 21 Noroeste 31 Noroeste 0 -- -- 89
2020-10-15 01:00:00 2.2 18 Norte 29 Norte 0 -- -- 87
2020-10-15 00:00:00 3 13 Norte 30 Noroeste 0 -- -- 84
2020-10-14 23:00:00 4.1 17 Noroeste 28 Noroeste 0 -- -- 83
2020-10-14 22:00:00 4 17 Noroeste 31 Oeste 0 -- -- 85
2020-10-14 21:00:00 4.5 16 Noroeste 38 Oeste 0 -- -- 85
2020-10-14 20:00:00 6.1 19 Noroeste 36 Noroeste 0 -- -- 70
2020-10-14 19:00:00 7.6 24 Noroeste 39 Noroeste 0 -- -- 58
2020-10-14 18:00:00 9.6 26 Noroeste 47 Noroeste 0 -- -- 45
2020-10-14 17:00:00 9.9 30 Noroeste 54 Oeste 0 -- -- 40
2020-10-14 16:00:00 9.6 27 Noroeste 46 Oeste 0 -- -- 44
2020-10-14 15:00:00 9.1 24 Noroeste 44 Noroeste 0 -- -- 49
2020-10-14 14:00:00 8.7 22 Noroeste 37 Oeste 0 -- -- 58
2020-10-14 13:00:00 8 20 Noroeste 37 Noroeste 0 -- -- 59
2020-10-14 12:00:00 7.4 22 Noroeste 42 Noroeste 0 -- -- 63
2020-10-14 11:00:00 6.8 24 Noroeste 41 Oeste 0 -- -- 65
2020-10-14 10:00:00 6.3 22 Noroeste 31 Noroeste 0 -- -- 75
2020-10-14 09:00:00 4.4 13 Norte 22 Norte 0 -- -- 91
2020-10-14 08:00:00 4.4 14 Norte 26 Norte 0 -- -- 90
2020-10-14 07:00:00 4.7 13 Norte 25 Norte 0 -- -- 91
2020-10-14 06:00:00 5.2 13 Norte 22 Norte 0 -- -- 91
2020-10-14 05:00:00 5.7 9 Norte 14 Noroeste 0 -- -- 88
2020-10-14 04:00:00 5.7 7 Norte 18 Norte 0 -- -- 88
2020-10-14 03:00:00 5.8 8 Norte 15 Norte 0 -- -- 88
2020-10-14 02:00:00 6.5 0 Calma 5 Nordeste 0 -- -- 90
2020-10-14 01:00:00 7.2 3 Norte 8 Nordeste 0 -- -- 88
2020-10-14 00:00:00 7.3 4 Norte 12 Norte 0 -- -- 88
2020-10-13 23:00:00 7.2 4 Norte 12 Norte 0 -- -- 87
2020-10-13 22:00:00 8.5 4 Nordeste 10 Norte 0 -- -- 82
2020-10-13 21:00:00 10.2 6 Norte 13 Noroeste 0 -- -- 74
2020-10-13 20:00:00 11.8 10 Noroeste 20 Noroeste 0 -- -- 59
2020-10-13 19:00:00 12.9 11 Noroeste 27 Oeste 0 -- -- 57
2020-10-13 18:00:00 14.8 16 Noroeste 32 Oeste 0 -- -- 52
2020-10-13 17:00:00 14.9 21 Oeste 33 Oeste 0 -- -- 55
2020-10-13 16:00:00 14.1 20 Oeste 38 Oeste 0 -- -- 59
2020-10-13 15:00:00 13.8 16 Noroeste 32 Noroeste 0 -- -- 59
2020-10-13 14:00:00 13.3 25 Oeste 37 Oeste 0 -- -- 63
2020-10-13 13:00:00 12.7 24 Oeste 46 Noroeste 0 -- -- 67
2020-10-13 12:00:00 11.4 30 Noroeste 46 Noroeste 0 -- -- 70
2020-10-13 11:00:00 9.5 23 Noroeste 42 Oeste 0 -- -- 80
2020-10-13 10:00:00 8.1 26 Noroeste 44 Noroeste 0 -- -- 86
2020-10-13 09:00:00 7.7 21 Noroeste 39 Noroeste 0 -- -- 78
2020-10-13 08:00:00 7.4 19 Noroeste 40 Noroeste 0 -- -- 74
2020-10-13 07:00:00 7.6 24 Noroeste 42 Noroeste 0 -- -- 69
2020-10-13 06:00:00 7.4 19 Noroeste 37 Noroeste 0 -- -- 67
2020-10-13 05:00:00 7.4 23 Noroeste 43 Noroeste 0 -- -- 65
2020-10-13 04:00:00 -- -- -- -- -- -- -- -- --
2020-10-13 03:00:00 7.4 18 Noroeste 29 Noroeste 0 -- -- 71
2020-10-13 02:00:00 6.9 20 Noroeste 42 Noroeste 0 -- -- 72
2020-10-13 01:00:00 -- -- -- -- -- -- -- -- --
2020-10-13 00:00:00 7.5 24 Noroeste 50 Noroeste 0 -- -- 71
2020-10-12 23:00:00 6.8 27 Noroeste 45 Oeste 0 -- -- 66
2020-10-12 22:00:00 5.1 9 Nordeste 19 Noroeste 0 -- -- 78
2020-10-12 21:00:00 5.7 8 Norte 16 Norte 0 -- -- 78
2020-10-12 20:00:00 7.5 12 Norte 39 Noroeste 0 -- -- 67
2020-10-12 19:00:00 9.9 17 Noroeste 37 Noroeste 0 -- -- 55
2020-10-12 18:00:00 -- -- -- -- -- -- -- -- --
2020-10-12 17:00:00 10.5 23 Noroeste 40 Noroeste 0 -- -- 52
2020-10-12 16:00:00 10.4 28 Noroeste 53 Noroeste 0 -- -- 51
2020-10-12 15:00:00 10 32 Noroeste 51 Noroeste 0 -- -- 55
2020-10-12 14:00:00 9 25 Noroeste 44 Noroeste 0 -- -- 55
2020-10-12 13:00:00 7.5 27 Noroeste 42 Noroeste 0 -- -- 63
2020-10-12 12:00:00 5.5 23 Norte 43 Noroeste 0 -- -- 75
2020-10-12 11:00:00 4.9 23 Norte 42 Noroeste 0 -- -- 79
2020-10-12 10:00:00 4.3 24 Noroeste 45 Noroeste 0 -- -- 83
2020-10-12 09:00:00 3.4 25 Noroeste 45 Noroeste 0 -- -- 86
2020-10-12 08:00:00 3 31 Noroeste 51 Noroeste 0 -- -- 89
2020-10-12 07:00:00 3.2 32 Noroeste 52 Noroeste 0 -- -- 86
2020-10-12 06:00:00 3.1 28 Noroeste 49 Noroeste 0 -- -- 86
2020-10-12 05:00:00 3.4 35 Noroeste 51 Noroeste 0 -- -- 86
2020-10-12 04:00:00 -- -- -- -- -- -- -- -- --
2020-10-12 03:00:00 3.7 37 Noroeste 57 Noroeste 0 -- -- 83
2020-10-12 02:00:00 3.6 37 Noroeste 52 Noroeste 0 -- -- 83
2020-10-12 01:00:00 3.9 27 Noroeste 43 Noroeste 0 -- -- 80
2020-10-12 00:00:00 4.2 32 Noroeste 58 Noroeste 0 -- -- 80
2020-10-11 23:00:00 5 33 Noroeste 54 Noroeste 0 -- -- 76
2020-10-11 22:00:00 4.7 22 Noroeste 47 Noroeste 0 -- -- 74
2020-10-11 21:00:00 -- -- -- -- -- -- -- -- --
2020-10-11 20:00:00 -- -- -- -- -- -- -- -- --
2020-10-11 19:00:00 7.9 27 Noroeste 53 Noroeste 0 -- -- 58
2020-10-11 18:00:00 9.3 32 Noroeste 56 Noroeste 0 -- -- 53
2020-10-11 17:00:00 10 28 Noroeste 52 Noroeste 0 -- -- 46
2020-10-11 16:00:00 10.3 34 Noroeste 54 Noroeste 0 -- -- 46
2020-10-11 15:00:00 10.4 28 Noroeste 51 Noroeste 0 -- -- 47
2020-10-11 14:00:00 10.1 30 Noroeste 54 Oeste 0 -- -- 46
2020-10-11 13:00:00 8.1 32 Noroeste 57 Oeste 0 -- -- 58
2020-10-11 12:00:00 7.2 26 Noroeste 44 Noroeste 0 -- -- 64
2020-10-11 11:00:00 5.5 28 Noroeste 53 Noroeste 0 -- -- 70
2020-10-11 10:00:00 4.1 37 Noroeste 51 Norte 0 -- -- 74
2020-10-11 09:00:00 3.3 8 Norte 21 Norte 0 -- -- 79
2020-10-11 08:00:00 2.9 18 Noroeste 45 Noroeste 0 -- -- 81
2020-10-11 07:00:00 4.2 24 Noroeste 42 Noroeste 0 -- -- 80
2020-10-11 06:00:00 4.8 24 Noroeste 36 Noroeste 0 -- -- 82
2020-10-11 05:00:00 5 20 Norte 35 Norte 0 -- -- 83
2020-10-11 04:00:00 4.8 19 Norte 34 Norte 0 -- -- 84
2020-10-11 03:00:00 5.2 19 Norte 36 Norte 0 -- -- 84
2020-10-11 02:00:00 4.7 13 Norte 23 Norte 0 -- -- 85
2020-10-11 01:00:00 6 9 Norte 22 Norte 0 -- -- 87
2020-10-11 00:00:00 7.5 12 Norte 23 Norte 0 -- -- 85
2020-10-10 23:00:00 7.7 13 Norte 23 Norte 0 -- -- 86
2020-10-10 22:00:00 7.9 15 Norte 25 Norte 0 -- -- 87
2020-10-10 21:00:00 9 13 Norte 22 Norte 0 -- -- 85
2020-10-10 20:00:00 10 16 Norte 30 Norte 0 -- -- 81
2020-10-10 19:00:00 12.8 16 Norte 31 Norte 0 -- -- 68
2020-10-10 18:00:00 14.2 19 Norte 30 Norte 0 -- -- 62
2020-10-10 17:00:00 15.8 17 Norte 27 Norte 0 -- -- 55
2020-10-10 16:00:00 14.4 10 Nordeste 28 Noroeste 0 -- -- 65
2020-10-10 15:00:00 14 17 Norte 26 Norte 0 -- -- 69
2020-10-10 14:00:00 13.6 11 Norte 19 Norte 0 -- -- 73
2020-10-10 13:00:00 11.9 10 Norte 17 Norte 0 -- -- 85
2020-10-10 12:00:00 10.7 12 Norte 23 Norte 0 -- -- 92
2020-10-10 11:00:00 10.1 12 Norte 17 Norte 0 -- -- 98
2020-10-10 10:00:00 10.1 9 Norte 13 Norte 0 -- -- 100
2020-10-10 09:00:00 9.6 7 Nordeste 10 Nordeste 0 -- -- 100
2020-10-10 08:00:00 9.6 5 Nordeste 9 Norte 0 -- -- 99
2020-10-10 07:00:00 10 6 Norte 10 Norte 0 -- -- 100
2020-10-10 06:00:00 9.9 3 Nordeste 6 Este 0 -- -- 99
2020-10-10 05:00:00 10.4 4 Nordeste 11 Norte 0 -- -- 99
2020-10-10 04:00:00 10.6 4 Nordeste 8 Norte 0 -- -- 99
2020-10-10 03:00:00 11 2 Nordeste 8 Este 0 -- -- 95
2020-10-10 02:00:00 11.7 3 Este 8 Nordeste 0 -- -- 94
2020-10-10 01:00:00 13.1 4 Sudeste 9 Sur 0 -- -- 93
2020-10-10 00:00:00 13.9 8 Sur 16 Sur 0 -- -- 92
2020-10-09 23:00:00 14.2 8 Sudeste 17 Sudeste 0 -- -- 94
2020-10-09 22:00:00 14.5 6 Sur 22 Sur 0 -- -- 94
2020-10-09 21:00:00 14.5 19 Sur 27 Sur 0 -- -- 95
2020-10-09 20:00:00 16.1 19 Sur 26 Sur 0 -- -- 82
2020-10-09 19:00:00 19.6 17 Sur 24 Sur 0 -- -- 61
2020-10-09 18:00:00 20.8 6 Noroeste 14 Oeste 0 -- -- 36
2020-10-09 17:00:00 21.8 6 Norte 20 Noroeste 0 -- -- 33
2020-10-09 16:00:00 22.5 11 Noroeste 25 Oeste 0 -- -- 29
2020-10-09 15:00:00 22.6 8 Sur 20 Noroeste 0 -- -- 25
2020-10-09 14:00:00 21.3 8 Norte 18 Nordeste 0 -- -- 32
2020-10-09 13:00:00 20.5 5 Este 21 Noroeste 0 -- -- 35
2020-10-09 12:00:00 19.4 4 Norte 8 Norte 0 -- -- 39
2020-10-09 11:00:00 16.2 0 Calma 4 Norte 0 -- -- 67
2020-10-09 10:00:00 11 0 Calma 6 Este 0 -- -- 88
2020-10-09 09:00:00 7.9 4 Este 7 Este 0 -- -- 97
2020-10-09 08:00:00 6.5 4 Este 9 Este 0 -- -- 96
2020-10-09 07:00:00 6.9 7 Este 9 Este 0 -- -- 96
2020-10-09 06:00:00 7.7 2 Nordeste 13 Este 0 -- -- 93
2020-10-09 05:00:00 8.1 5 Este 9 Este 0 -- -- 95
2020-10-09 04:00:00 9.3 8 Sudeste 14 Este 0 -- -- 95
2020-10-09 03:00:00 9.4 3 Este 13 Este 0 -- -- 94
2020-10-09 02:00:00 9.5 8 Este 13 Este 0 -- -- 97
2020-10-09 01:00:00 11.5 4 Sudeste 9 Sudoeste 0 -- -- 94
2020-10-09 00:00:00 12.8 4 Sudoeste 19 Sur 0 -- -- 95
2020-10-08 23:00:00 13.1 14 Sur 20 Sur 0 -- -- 95
2020-10-08 22:00:00 13.6 12 Sur 27 Sur 0 -- -- 94
2020-10-08 21:00:00 14.5 17 Sur 26 Sur 0 -- -- 88
2020-10-08 20:00:00 16.4 18 Sudeste 26 Sudeste 0 -- -- 75
2020-10-08 19:00:00 19.8 13 Sur 22 Sudoeste 0 -- -- 50
2020-10-08 18:00:00 22 12 Sudoeste 26 Oeste 0 -- -- 33
2020-10-08 17:00:00 22.1 20 Sudoeste 30 Sudoeste 0 -- -- 32
2020-10-08 16:00:00 22.2 16 Sudoeste 32 Sudeste 0 -- -- 38
2020-10-08 15:00:00 21.5 9 Sudeste 24 Sudoeste 0 -- -- 45
2020-10-08 14:00:00 20.5 11 Sur 23 Sur 0 -- -- 50
2020-10-08 13:00:00 19.3 13 Sudeste 22 Sudeste 0 -- -- 54
2020-10-08 12:00:00 17.5 10 Sur 20 Sur 0 -- -- 62
2020-10-08 11:00:00 15.2 12 Sur 19 Sur 0 -- -- 73
2020-10-08 10:00:00 12.7 9 Sur 17 Sur 0 -- -- 85
2020-10-08 09:00:00 9.6 6 Sur 12 Sur 0 -- -- 93
2020-10-08 08:00:00 6.2 7 Sur 10 Sur 0 -- -- 94
2020-10-08 07:00:00 5.4 3 Oeste 6 Sudeste 0 -- -- 94
2020-10-08 06:00:00 6.9 0 Calma 3 Sudeste 0 -- -- 90
2020-10-08 05:00:00 7 0 Calma 8 Sudoeste 0 -- -- 95
2020-10-08 04:00:00 6.3 0 Calma 5 Este 0 -- -- 95
2020-10-08 03:00:00 6.6 0 Calma 6 Este 0 -- -- 94
2020-10-08 02:00:00 7.2 0 Calma 6 Este 0 -- -- 92
2020-10-08 01:00:00 7.7 4 Este 8 Este 0 -- -- 90
2020-10-08 00:00:00 8.8 7 Este 12 Este 0 -- -- 88
2020-10-07 23:00:00 9.9 5 Este 15 Este 0 -- -- 85
2020-10-07 22:00:00 11.4 3 Sudoeste 11 Este 0 -- -- 78
2020-10-07 21:00:00 12.7 8 Este 12 Este 0 -- -- 73
2020-10-07 20:00:00 15.6 3 Oeste 17 Noroeste 0 -- -- 63
2020-10-07 19:00:00 18.5 12 Noroeste 17 Noroeste 0 -- -- 53
2020-10-07 18:00:00 19.3 11 Norte 23 Noroeste 0 -- -- 52
2020-10-07 17:00:00 19.6 15 Noroeste 25 Oeste 0 -- -- 53
2020-10-07 16:00:00 18.9 14 Norte 27 Norte 0 -- -- 56
2020-10-07 15:00:00 18.4 14 Norte 36 Noroeste 0 -- -- 57
2020-10-07 14:00:00 17.5 24 Noroeste 42 Noroeste 0 -- -- 60
2020-10-07 13:00:00 16.9 26 Norte 42 Norte 0 -- -- 61
2020-10-07 12:00:00 15.4 20 Norte 33 Norte 0 -- -- 64
2020-10-07 11:00:00 13 18 Norte 27 Norte 0 -- -- 70
2020-10-07 10:00:00 12.5 13 Norte 33 Noroeste 0 -- -- 71
2020-10-07 09:00:00 11.2 14 Norte 26 Norte 0 -- -- 77
2020-10-07 08:00:00 10.4 13 Norte 33 Noroeste 0 -- -- 81
2020-10-07 07:00:00 10.7 12 Norte 26 Noroeste 0 -- -- 80
2020-10-07 06:00:00 11.1 12 Norte 38 Norte 0 -- -- 78
2020-10-07 05:00:00 12.1 15 Noroeste 27 Noroeste 0 -- -- 81
2020-10-07 04:00:00 11.6 10 Norte 23 Norte 0 -- -- 84
2020-10-07 03:00:00 9.6 4 Sudeste 12 Nordeste 0 -- -- 88
2020-10-07 02:00:00 9.1 8 Este 11 Este 0 -- -- 95
2020-10-07 01:00:00 8.8 5 Noroeste 12 Este 0 -- -- 91
2020-10-07 00:00:00 10.2 6 Este 10 Sudeste 0 -- -- 85
2020-10-06 23:00:00 12 4 Sudeste 11 Oeste 0 -- -- 82
2020-10-06 22:00:00 12.9 7 Noroeste 22 Oeste 0 -- -- 78
2020-10-06 21:00:00 14 3 Sur 8 Sur 0 -- -- 72
2020-10-06 20:00:00 15.3 7 Noroeste 26 Oeste 0 -- -- 68
2020-10-06 19:00:00 17.2 13 Noroeste 32 Oeste 0 -- -- 60
2020-10-06 18:00:00 17.6 21 Noroeste 35 Oeste 0 -- -- 59
2020-10-06 17:00:00 17.8 18 Noroeste 31 Oeste 0 -- -- 59
2020-10-06 16:00:00 16.1 17 Oeste 37 Noroeste 0 -- -- 63
2020-10-06 15:00:00 16.4 22 Oeste 34 Oeste 0 -- -- 61
2020-10-06 14:00:00 17.2 12 Noroeste 26 Oeste 0 -- -- 59
2020-10-06 13:00:00 15.5 13 Noroeste 28 Norte 0 -- -- 65
2020-10-06 12:00:00 13.4 18 Noroeste 29 Noroeste 0 -- -- 66
2020-10-06 11:00:00 12.4 15 Norte 28 Norte 0 -- -- 69
2020-10-06 10:00:00 11.1 18 Norte 29 Norte 0 -- -- 67
2020-10-06 09:00:00 10.2 5 Nordeste 26 Noroeste 0 -- -- 70
2020-10-06 08:00:00 8.6 8 Nordeste 18 Nordeste 0 -- -- 74
2020-10-06 07:00:00 7.9 7 Nordeste 21 Nordeste 0 -- -- 72
2020-10-06 06:00:00 8.3 8 Norte 19 Norte 0 -- -- 69
2020-10-06 05:00:00 8.3 8 Norte 21 Noroeste 0 -- -- 65
2020-10-06 04:00:00 7.1 11 Nordeste 21 Nordeste 0 -- -- 69
2020-10-06 03:00:00 5.3 4 Nordeste 15 Este 0 -- -- 76
2020-10-06 02:00:00 4.7 6 Nordeste 14 Nordeste 0 -- -- 80
2020-10-06 01:00:00 3.4 5 Este 10 Este 0 -- -- 84
2020-10-06 00:00:00 3.4 6 Este 11 Este 0 -- -- 84
2020-10-05 23:00:00 5 8 Este 12 Este 0 -- -- 77
2020-10-05 22:00:00 6.4 5 Este 9 Este 0 -- -- 71
2020-10-05 21:00:00 7.9 4 Nordeste 16 Noroeste 0 -- -- 64
2020-10-05 20:00:00 10 10 Noroeste 30 Noroeste 0 -- -- 54
2020-10-05 19:00:00 12 17 Noroeste 28 Noroeste 0 -- -- 47
2020-10-05 18:00:00 12.6 14 Noroeste 25 Noroeste 0 -- -- 45
2020-10-05 17:00:00 11.6 13 Noroeste 27 Noroeste 0 -- -- 49
2020-10-05 16:00:00 11.7 18 Oeste 32 Oeste 0 -- -- 45
2020-10-05 15:00:00 12.2 17 Oeste 30 Oeste 0 -- -- 47
2020-10-05 14:00:00 10.8 18 Noroeste 32 Noroeste 0 -- -- 54
2020-10-05 13:00:00 9.5 13 Noroeste 33 Noroeste 0 -- -- 63
2020-10-05 12:00:00 7.4 22 Noroeste 37 Oeste 0 -- -- 70
2020-10-05 11:00:00 6.6 18 Noroeste 37 Norte 0 -- -- 75
2020-10-05 10:00:00 4.9 14 Noroeste 46 Oeste 0 -- -- 85
2020-10-05 09:00:00 4.9 20 Noroeste 38 Oeste 0 -- -- 85
2020-10-05 08:00:00 5.1 14 Noroeste 25 Norte 0 -- -- 85
2020-10-05 07:00:00 5.5 6 Noroeste 13 Norte 0 -- -- 83
2020-10-05 06:00:00 5.2 7 Norte 13 Norte 0 -- -- 82
2020-10-05 05:00:00 3.9 3 Norte 13 Sudoeste 0 -- -- 86
2020-10-05 04:00:00 5 2 Sudeste 8 Noroeste 0 -- -- 78
2020-10-05 03:00:00 5.2 4 Norte 10 Oeste 0 -- -- 77
2020-10-05 02:00:00 5.9 4 Este 11 Norte 0 -- -- 72
2020-10-05 01:00:00 6.2 5 Sudeste 17 Norte 0 -- -- 71
2020-10-05 00:00:00 7.4 9 Noroeste 33 Oeste 0 -- -- 66
2020-10-04 23:00:00 7.7 27 Oeste 48 Oeste 0 -- -- 65
2020-10-04 22:00:00 7.8 28 Oeste 42 Oeste 0 -- -- 69
2020-10-04 21:00:00 8.1 27 Oeste 37 Oeste 0 -- -- 69
2020-10-04 20:00:00 8.3 16 Noroeste 28 Oeste 0 -- -- 68
2020-10-04 19:00:00 10.4 22 Noroeste 43 Oeste 0 -- -- 60
2020-10-04 18:00:00 10.9 30 Oeste 54 Oeste 0 -- -- 51
2020-10-04 17:00:00 10.7 34 Oeste 58 Oeste 0 -- -- 51
2020-10-04 16:00:00 10.7 39 Oeste 55 Sudoeste 0 -- -- 56
2020-10-04 15:00:00 10 27 Oeste 48 Oeste 0 -- -- 69
2020-10-04 14:00:00 8.8 23 Sudoeste 39 Sudoeste 0 -- -- 73
2020-10-04 13:00:00 7.6 25 Oeste 42 Sudoeste 0.2 -- -- 79
2020-10-04 12:00:00 9.5 22 Sudoeste 38 Sudoeste 0 -- -- 62
2020-10-04 11:00:00 7 15 Oeste 28 Sudoeste 0 -- -- 67
2020-10-04 10:00:00 6 9 Sur 16 Sur 0 -- -- 71
2020-10-04 09:00:00 4.9 9 Sur 14 Sur 0 -- -- 74
2020-10-04 08:00:00 3.5 4 Sudeste 13 Sudeste 0 -- -- 77
2020-10-04 07:00:00 3.8 3 Noroeste 14 Sudoeste 0 -- -- 75
2020-10-04 06:00:00 4.2 5 Sur 20 Sudoeste 0 -- -- 72
2020-10-04 05:00:00 4.6 8 Oeste 18 Sudoeste 0 -- -- 70
2020-10-04 04:00:00 5.8 8 Noroeste 20 Oeste 0 -- -- 64
2020-10-04 03:00:00 5.9 12 Oeste 28 Oeste 0 -- -- 66
2020-10-04 02:00:00 6.4 16 Oeste 27 Oeste 0 -- -- 64
2020-10-04 01:00:00 6.7 17 Oeste 27 Oeste 0 -- -- 63
2020-10-04 00:00:00 7.1 13 Sudoeste 29 Sudoeste 0 -- -- 66
2020-10-03 23:00:00 7.2 13 Sudoeste 22 Oeste 0 -- -- 65
2020-10-03 22:00:00 7.2 12 Sudoeste 21 Sudoeste 0 -- -- 62
2020-10-03 21:00:00 6.8 13 Sudoeste 19 Sudoeste 0 -- -- 63
2020-10-03 20:00:00 8 9 Oeste 32 Oeste 0 -- -- 58
2020-10-03 19:00:00 10 20 Oeste 36 Noroeste 0 -- -- 52
2020-10-03 18:00:00 10.4 23 Oeste 36 Noroeste 0 -- -- 51
2020-10-03 17:00:00 10.8 18 Noroeste 35 Noroeste 0 -- -- 52
2020-10-03 16:00:00 10.8 22 Noroeste 38 Oeste 0 -- -- 52
2020-10-03 15:00:00 10.8 23 Noroeste 42 Oeste 0 -- -- 53
2020-10-03 14:00:00 9.7 21 Oeste 35 Oeste 0 -- -- 57
2020-10-03 13:00:00 8 25 Oeste 41 Oeste 0 -- -- 59
2020-10-03 12:00:00 6.6 28 Oeste 46 Oeste 0 -- -- 67
2020-10-03 11:00:00 5.5 21 Oeste 50 Oeste 0 -- -- 71
2020-10-03 10:00:00 4 28 Oeste 48 Oeste 0 -- -- 75
2020-10-03 09:00:00 3.1 33 Oeste 46 Oeste 0 -- -- 78
2020-10-03 08:00:00 2.4 28 Oeste 51 Oeste 0 -- -- 82
2020-10-03 07:00:00 2.6 21 Oeste 36 Oeste 0 -- -- 80
2020-10-03 06:00:00 2.6 10 Noroeste 40 Oeste 0 -- -- 80
2020-10-03 05:00:00 2.8 22 Oeste 44 Oeste 0 -- -- 79
2020-10-03 04:00:00 2.9 21 Oeste 36 Oeste 0 -- -- 78
2020-10-03 03:00:00 2.8 9 Oeste 32 Oeste 0 -- -- 78
2020-10-03 02:00:00 2.8 24 Oeste 38 Oeste 0 -- -- 81
2020-10-03 01:00:00 2.8 11 Norte 17 Norte 0 -- -- 80
2020-10-03 00:00:00 3.1 13 Oeste 40 Oeste 0 -- -- 78
2020-10-02 23:00:00 3.4 29 Oeste 47 Oeste 0 -- -- 76
2020-10-02 22:00:00 3.2 26 Oeste 40 Oeste 0 -- -- 78
2020-10-02 21:00:00 3.5 25 Oeste 49 Oeste 0 -- -- 76
2020-10-02 20:00:00 3.4 29 Oeste 50 Noroeste 0 -- -- 83
2020-10-02 19:00:00 2.5 35 Noroeste 66 Noroeste 0.4 -- -- 95
2020-10-02 18:00:00 2.6 32 Noroeste 55 Noroeste 1.4 -- -- 98
2020-10-02 17:00:00 3.7 14 Oeste 27 Oeste 0 -- -- 98
2020-10-02 16:00:00 2.9 20 Oeste 60 Noroeste 1.4 -- -- 99
2020-10-02 15:00:00 2.7 48 Noroeste 76 Oeste 3.4 -- -- 98
2020-10-02 14:00:00 4.7 32 Noroeste 71 Oeste 6.4 -- -- 96
2020-10-02 13:00:00 6.6 40 Noroeste 68 Oeste 3 -- -- 96
2020-10-02 12:00:00 10.3 29 Sudoeste 51 Sudoeste 0 -- -- 89
2020-10-02 11:00:00 10.2 27 Sudoeste 50 Sudoeste 0 -- -- 85
2020-10-02 10:00:00 9.3 30 Sudoeste 51 Sudoeste 0 -- -- 85
2020-10-02 09:00:00 9.3 21 Sur 46 Sudoeste 0 -- -- 85
2020-10-02 08:00:00 9.2 30 Sudoeste 53 Sudoeste 0 -- -- 84
2020-10-02 07:00:00 9 33 Sudoeste 52 Sudoeste 0 -- -- 83
2020-10-02 06:00:00 9.6 16 Sur 43 Sudoeste 0 -- -- 75
2020-10-02 05:00:00 10.4 26 Sudoeste 42 Sudoeste 0 -- -- 71
2020-10-02 04:00:00 11 25 Sudoeste 36 Sudoeste 0 -- -- 70
2020-10-02 03:00:00 11.5 21 Sudoeste 35 Sudoeste 0 -- -- 68
2020-10-02 02:00:00 11.5 15 Sur 30 Sudoeste 0 -- -- 68
2020-10-02 01:00:00 11.5 11 Sur 22 Sur 0 -- -- 66
2020-10-02 00:00:00 12.3 12 Sur 28 Sudoeste 0 -- -- 60
2020-10-01 23:00:00 13.4 19 Sudoeste 33 Oeste 0 -- -- 53
2020-10-01 22:00:00 13.4 8 Sur 17 Sudoeste 0 -- -- 56
2020-10-01 21:00:00 14.3 12 Sudoeste 23 Oeste 0 -- -- 50
2020-10-01 20:00:00 15.9 11 Sudoeste 25 Oeste 0 -- -- 44
2020-10-01 19:00:00 18.8 14 Oeste 23 Oeste 0 -- -- 37
2020-10-01 18:00:00 20.3 17 Oeste 26 Oeste 0 -- -- 31
2020-10-01 17:00:00 19.8 18 Oeste 32 Oeste 0 -- -- 34
2020-10-01 16:00:00 21.2 18 Oeste 30 Sudoeste 0 -- -- 31
2020-10-01 15:00:00 21 15 Sudoeste 33 Oeste 0 -- -- 32
2020-10-01 14:00:00 19.9 12 Oeste 26 Oeste 0 -- -- 35
2020-10-01 13:00:00 18.4 15 Noroeste 28 Oeste 0 -- -- 41
2020-10-01 12:00:00 17.3 14 Noroeste 32 Noroeste 0 -- -- 43
2020-10-01 11:00:00 17 11 Sudoeste 17 Oeste 0 -- -- 42
2020-10-01 10:00:00 13 3 Oeste 10 Oeste 0 -- -- 56
2020-10-01 09:00:00 8.1 6 Este 12 Este 0 -- -- 73
2020-10-01 08:00:00 6.8 3 Sudeste 10 Este 0 -- -- 73
2020-10-01 07:00:00 7.6 6 Este 12 Este 0 -- -- 70
2020-10-01 06:00:00 8.2 6 Sudeste 9 Este 0 -- -- 68
2020-10-01 05:00:00 7.7 3 Este 14 Este 0 -- -- 72
2020-10-01 04:00:00 9.2 8 Este 12 Este 0 -- -- 64
2020-10-01 03:00:00 10.3 5 Sur 9 Sudeste 0 -- -- 60
2020-10-01 02:00:00 9.8 2 Sudeste 6 Este 0 -- -- 65
2020-10-01 01:00:00 9.7 5 Este 9 Este 0 -- -- 77
2020-10-01 00:00:00 10.7 4 Sudeste 11 Este 0 -- -- 85
2020-09-30 23:00:00 11.6 0 Calma 9 Sudeste 0 -- -- 90
2020-09-30 22:00:00 13.1 6 Sur 15 Sur 0 -- -- 88
2020-09-30 21:00:00 14.5 14 Sur 22 Sur 0 -- -- 84
2020-09-30 20:00:00 16.8 11 Sur 26 Sudeste 0 -- -- 65
2020-09-30 19:00:00 19.7 18 Sur 25 Sur 0 -- -- 52
2020-09-30 18:00:00 22.8 16 Oeste 26 Sudoeste 0 -- -- 24
2020-09-30 17:00:00 23.3 13 Sudoeste 23 Oeste 0 -- -- 22
2020-09-30 16:00:00 23.2 10 Oeste 20 Oeste 0 -- -- 22
2020-09-30 15:00:00 22.4 9 Oeste 22 Oeste 0 -- -- 23
2020-09-30 14:00:00 21.9 9 Oeste 23 Oeste 0 -- -- 24
2020-09-30 13:00:00 20.7 11 Oeste 21 Oeste 0 -- -- 27
2020-09-30 12:00:00 19.6 9 Sudoeste 19 Oeste 0 -- -- 29
2020-09-30 11:00:00 15.5 0 Calma 5 Oeste 0 -- -- 42
2020-09-30 10:00:00 9.8 0 Calma 6 Este 0 -- -- 73
2020-09-30 09:00:00 6 4 Nordeste 7 Este 0 -- -- 81
2020-09-30 08:00:00 4.3 4 Nordeste 9 Este 0 -- -- 86
2020-09-30 07:00:00 4.8 7 Este 10 Este 0 -- -- 87
2020-09-30 06:00:00 5.2 8 Este 12 Este 0 -- -- 89
2020-09-30 05:00:00 5.7 7 Este 13 Este 0 -- -- 88
2020-09-30 04:00:00 5.5 3 Este 10 Este 0 -- -- 90
2020-09-30 03:00:00 6 7 Este 10 Este 0 -- -- 89
2020-09-30 02:00:00 6.5 5 Este 9 Este 0 -- -- 92
2020-09-30 01:00:00 7.3 6 Este 9 Este 0 -- -- 92
2020-09-30 00:00:00 8.9 6 Sudeste 8 Sudeste 0 -- -- 92